sensor_id;sensor_type;location;lat;lon;timestamp;pressure;altitude;pressure_sealevel;temperature;humidity
45731;BME280;31440;48.584;13.460;2023-06-14T00:02:44;96435.22;;;13.29;59.98
45731;BME280;31440;48.584;13.460;2023-06-14T00:05:49;96436.19;;;13.76;57.02
45731;BME280;31440;48.584;13.460;2023-06-14T00:08:53;96434.81;;;13.53;57.65
45731;BME280;31440;48.584;13.460;2023-06-14T00:12:01;96418.41;;;13.51;57.72
45731;BME280;31440;48.584;13.460;2023-06-14T00:15:06;96430.28;;;13.40;57.99
45731;BME280;31440;48.584;13.460;2023-06-14T00:18:11;96424.06;;;13.09;60.08
45731;BME280;31440;48.584;13.460;2023-06-14T00:21:16;96427.00;;;13.36;58.60
45731;BME280;31440;48.584;13.460;2023-06-14T00:24:20;96426.00;;;13.39;58.67
45731;BME280;31440;48.584;13.460;2023-06-14T00:27:25;96422.94;;;13.15;59.58
45731;BME280;31440;48.584;13.460;2023-06-14T00:30:30;96421.59;;;13.23;59.26
45731;BME280;31440;48.584;13.460;2023-06-14T00:33:35;96416.56;;;13.36;58.98
45731;BME280;31440;48.584;13.460;2023-06-14T00:36:41;96420.66;;;13.24;59.23
45731;BME280;31440;48.584;13.460;2023-06-14T00:39:46;96419.63;;;13.11;60.37
45731;BME280;31440;48.584;13.460;2023-06-14T00:42:50;96416.31;;;13.08;61.76
45731;BME280;31440;48.584;13.460;2023-06-14T00:49:01;96420.25;;;12.65;72.31
45731;BME280;31440;48.584;13.460;2023-06-14T00:52:06;96413.81;;;12.54;76.36
45731;BME280;31440;48.584;13.460;2023-06-14T00:55:10;96409.44;;;12.38;76.39
45731;BME280;31440;48.584;13.460;2023-06-14T00:58:15;96423.81;;;12.28;77.37
45731;BME280;31440;48.584;13.460;2023-06-14T01:01:20;96416.41;;;12.37;73.63
45731;BME280;31440;48.584;13.460;2023-06-14T01:04:25;96410.81;;;12.62;71.62
45731;BME280;31440;48.584;13.460;2023-06-14T01:07:34;96417.13;;;12.75;70.37
45731;BME280;31440;48.584;13.460;2023-06-14T01:10:47;96416.03;;;12.45;70.88
45731;BME280;31440;48.584;13.460;2023-06-14T01:13:57;96429.78;;;12.30;70.34
45731;BME280;31440;48.584;13.460;2023-06-14T01:17:04;96430.44;;;11.97;75.87
45731;BME280;31440;48.584;13.460;2023-06-14T01:20:12;96430.19;;;11.84;83.55
45731;BME280;31440;48.584;13.460;2023-06-14T01:23:19;96423.22;;;11.85;83.55
45731;BME280;31440;48.584;13.460;2023-06-14T01:26:24;96434.94;;;11.75;82.51
45731;BME280;31440;48.584;13.460;2023-06-14T01:29:30;96425.09;;;11.44;82.04
45731;BME280;31440;48.584;13.460;2023-06-14T01:32:37;96431.81;;;11.68;78.90
45731;BME280;31440;48.584;13.460;2023-06-14T01:35:44;96424.97;;;11.84;78.11
45731;BME280;31440;48.584;13.460;2023-06-14T01:38:49;96423.88;;;11.71;79.61
45731;BME280;31440;48.584;13.460;2023-06-14T01:41:56;96420.03;;;12.16;75.39
45731;BME280;31440;48.584;13.460;2023-06-14T01:45:02;96429.75;;;11.75;76.95
45731;BME280;31440;48.584;13.460;2023-06-14T01:48:07;96428.34;;;11.68;78.01
45731;BME280;31440;48.584;13.460;2023-06-14T01:51:11;96417.44;;;11.97;75.28
45731;BME280;31440;48.584;13.460;2023-06-14T01:54:16;96424.25;;;12.00;73.35
45731;BME280;31440;48.584;13.460;2023-06-14T01:57:20;96421.19;;;12.09;72.75
45731;BME280;31440;48.584;13.460;2023-06-14T02:00:25;96427.13;;;11.94;74.40
45731;BME280;31440;48.584;13.460;2023-06-14T02:03:30;96423.75;;;11.92;74.72
45731;BME280;31440;48.584;13.460;2023-06-14T02:06:35;96424.03;;;12.04;73.69
45731;BME280;31440;48.584;13.460;2023-06-14T02:09:42;96435.00;;;11.73;76.78
45731;BME280;31440;48.584;13.460;2023-06-14T02:12:47;96429.63;;;11.20;84.38
45731;BME280;31440;48.584;13.460;2023-06-14T02:15:51;96424.91;;;11.86;83.44
45731;BME280;31440;48.584;13.460;2023-06-14T02:18:59;96426.28;;;11.74;81.91
45731;BME280;31440;48.584;13.460;2023-06-14T02:22:03;96425.88;;;11.46;81.92
45731;BME280;31440;48.584;13.460;2023-06-14T02:25:11;96424.06;;;11.67;81.44
45731;BME280;31440;48.584;13.460;2023-06-14T02:28:17;96416.88;;;11.91;77.16
45731;BME280;31440;48.584;13.460;2023-06-14T02:31:22;96428.63;;;12.18;74.47
45731;BME280;31440;48.584;13.460;2023-06-14T02:34:27;96426.19;;;12.13;75.46
45731;BME280;31440;48.584;13.460;2023-06-14T02:37:31;96429.31;;;12.03;76.96
45731;BME280;31440;48.584;13.460;2023-06-14T02:40:35;96428.25;;;11.32;83.03
45731;BME280;31440;48.584;13.460;2023-06-14T02:43:40;96429.25;;;11.67;78.93
45731;BME280;31440;48.584;13.460;2023-06-14T02:46:46;96431.34;;;11.59;80.14
45731;BME280;31440;48.584;13.460;2023-06-14T02:49:51;96430.50;;;11.39;82.21
45731;BME280;31440;48.584;13.460;2023-06-14T02:52:55;96429.19;;;11.49;82.19
45731;BME280;31440;48.584;13.460;2023-06-14T02:56:01;96427.31;;;11.14;85.32
45731;BME280;31440;48.584;13.460;2023-06-14T02:59:07;96435.66;;;11.21;86.28
45731;BME280;31440;48.584;13.460;2023-06-14T03:02:14;96432.41;;;11.36;85.29
45731;BME280;31440;48.584;13.460;2023-06-14T03:05:20;96432.81;;;11.06;88.32
45731;BME280;31440;48.584;13.460;2023-06-14T03:08:26;96434.72;;;11.42;84.76
45731;BME280;31440;48.584;13.460;2023-06-14T03:11:36;96431.31;;;11.01;89.01
45731;BME280;31440;48.584;13.460;2023-06-14T03:14:41;96436.88;;;10.93;89.61
45731;BME280;31440;48.584;13.460;2023-06-14T03:17:46;96434.81;;;11.20;87.47
45731;BME280;31440;48.584;13.460;2023-06-14T03:20:54;96429.16;;;11.31;88.33
45731;BME280;31440;48.584;13.460;2023-06-14T03:24:03;96434.50;;;11.28;87.28
45731;BME280;31440;48.584;13.460;2023-06-14T03:27:08;96431.47;;;11.18;89.41
45731;BME280;31440;48.584;13.460;2023-06-14T03:30:17;96436.47;;;11.41;87.31
45731;BME280;31440;48.584;13.460;2023-06-14T03:36:32;96437.13;;;11.46;88.45
45731;BME280;31440;48.584;13.460;2023-06-14T03:39:37;96444.19;;;11.43;89.28
45731;BME280;31440;48.584;13.460;2023-06-14T03:42:43;96454.13;;;11.72;85.43
45731;BME280;31440;48.584;13.460;2023-06-14T03:45:48;96457.88;;;11.67;83.36
45731;BME280;31440;48.584;13.460;2023-06-14T03:48:53;96466.06;;;11.76;86.37
45731;BME280;31440;48.584;13.460;2023-06-14T03:51:58;96466.72;;;11.63;90.28
45731;BME280;31440;48.584;13.460;2023-06-14T03:55:04;96469.66;;;11.74;87.22
45731;BME280;31440;48.584;13.460;2023-06-14T04:01:18;96477.56;;;11.33;92.13
45731;BME280;31440;48.584;13.460;2023-06-14T04:04:23;96473.50;;;11.46;94.27
45731;BME280;31440;48.584;13.460;2023-06-14T04:07:34;96482.72;;;11.72;89.03
45731;BME280;31440;48.584;13.460;2023-06-14T04:10:45;96486.63;;;11.82;88.09
45731;BME280;31440;48.584;13.460;2023-06-14T04:13:51;96482.34;;;12.19;87.14
45731;BME280;31440;48.584;13.460;2023-06-14T04:16:58;96483.09;;;12.76;84.85
45731;BME280;31440;48.584;13.460;2023-06-14T04:20:02;96482.09;;;12.96;84.59
45731;BME280;31440;48.584;13.460;2023-06-14T04:23:14;96480.34;;;13.13;82.01
45731;BME280;31440;48.584;13.460;2023-06-14T04:26:19;96480.56;;;12.92;83.84
45731;BME280;31440;48.584;13.460;2023-06-14T04:29:25;96489.22;;;12.75;85.25
45731;BME280;31440;48.584;13.460;2023-06-14T04:32:37;96489.00;;;12.97;84.56
45731;BME280;31440;48.584;13.460;2023-06-14T04:35:47;96487.81;;;12.68;88.91
45731;BME280;31440;48.584;13.460;2023-06-14T04:38:56;96495.50;;;13.05;77.85
45731;BME280;31440;48.584;13.460;2023-06-14T04:45:12;96501.06;;;12.80;89.41
45731;BME280;31440;48.584;13.460;2023-06-14T04:48:17;96498.47;;;12.98;85.54
45731;BME280;31440;48.584;13.460;2023-06-14T04:51:25;96497.03;;;13.09;79.33
45731;BME280;31440;48.584;13.460;2023-06-14T04:54:34;96496.34;;;13.06;85.62
45731;BME280;31440;48.584;13.460;2023-06-14T04:57:40;96497.66;;;13.32;82.41
45731;BME280;31440;48.584;13.460;2023-06-14T05:00:45;96503.69;;;13.32;87.56
45731;BME280;31440;48.584;13.460;2023-06-14T05:03:50;96499.16;;;13.53;84.12
45731;BME280;31440;48.584;13.460;2023-06-14T05:06:55;96495.94;;;13.65;81.78
45731;BME280;31440;48.584;13.460;2023-06-14T05:10:01;96508.19;;;13.63;79.05
45731;BME280;31440;48.584;13.460;2023-06-14T05:13:06;96516.78;;;13.98;73.45
45731;BME280;31440;48.584;13.460;2023-06-14T05:16:11;96505.31;;;13.85;82.87
45731;BME280;31440;48.584;13.460;2023-06-14T05:19:15;96501.81;;;14.17;77.29
45731;BME280;31440;48.584;13.460;2023-06-14T05:22:22;96506.09;;;14.34;78.90
45731;BME280;31440;48.584;13.460;2023-06-14T05:25:26;96524.88;;;14.41;73.37
45731;BME280;31440;48.584;13.460;2023-06-14T05:28:32;96519.00;;;14.53;82.93
45731;BME280;31440;48.584;13.460;2023-06-14T05:31:36;96532.28;;;14.80;83.40
45731;BME280;31440;48.584;13.460;2023-06-14T05:34:42;96525.91;;;14.54;87.10
45731;BME280;31440;48.584;13.460;2023-06-14T05:37:47;96523.56;;;14.95;82.42
45731;BME280;31440;48.584;13.460;2023-06-14T05:40:52;96528.28;;;15.04;84.48
45731;BME280;31440;48.584;13.460;2023-06-14T05:43:57;96534.22;;;15.22;75.26
45731;BME280;31440;48.584;13.460;2023-06-14T05:47:02;96532.03;;;15.30;81.51
45731;BME280;31440;48.584;13.460;2023-06-14T05:50:06;96526.53;;;15.49;75.83
45731;BME280;31440;48.584;13.460;2023-06-14T05:53:11;96535.53;;;15.59;73.93
45731;BME280;31440;48.584;13.460;2023-06-14T05:56:17;96537.69;;;15.22;79.50
45731;BME280;31440;48.584;13.460;2023-06-14T05:59:22;96538.75;;;16.07;76.50
45731;BME280;31440;48.584;13.460;2023-06-14T06:02:26;96540.13;;;16.26;80.64
45731;BME280;31440;48.584;13.460;2023-06-14T06:05:31;96535.03;;;16.66;75.13
45731;BME280;31440;48.584;13.460;2023-06-14T06:08:37;96541.22;;;16.92;75.92
45731;BME280;31440;48.584;13.460;2023-06-14T06:11:42;96533.47;;;17.30;74.69
45731;BME280;31440;48.584;13.460;2023-06-14T06:14:56;96543.00;;;17.18;74.71
45731;BME280;31440;48.584;13.460;2023-06-14T06:18:01;96539.88;;;17.78;85.30
45731;BME280;31440;48.584;13.460;2023-06-14T06:21:05;96548.88;;;17.87;81.47
45731;BME280;31440;48.584;13.460;2023-06-14T06:24:10;96545.19;;;17.64;69.50
45731;BME280;31440;48.584;13.460;2023-06-14T06:27:17;96544.81;;;17.95;76.78
45731;BME280;31440;48.584;13.460;2023-06-14T06:30:24;96548.34;;;18.20;60.04
45731;BME280;31440;48.584;13.460;2023-06-14T06:33:29;96550.00;;;18.21;64.39
45731;BME280;31440;48.584;13.460;2023-06-14T06:36:34;96552.72;;;18.57;58.90
45731;BME280;31440;48.584;13.460;2023-06-14T06:39:39;96555.91;;;18.24;63.80
45731;BME280;31440;48.584;13.460;2023-06-14T06:42:45;96563.53;;;18.40;62.84
45731;BME280;31440;48.584;13.460;2023-06-14T06:45:50;96553.34;;;19.32;65.14
45731;BME280;31440;48.584;13.460;2023-06-14T06:48:55;96564.31;;;18.79;62.30
45731;BME280;31440;48.584;13.460;2023-06-14T06:52:03;96565.16;;;18.79;61.08
45731;BME280;31440;48.584;13.460;2023-06-14T06:55:08;96567.97;;;19.13;63.41
45731;BME280;31440;48.584;13.460;2023-06-14T06:58:15;96570.97;;;18.71;64.54
45731;BME280;31440;48.584;13.460;2023-06-14T07:01:19;96567.28;;;19.45;76.90
45731;BME280;31440;48.584;13.460;2023-06-14T07:04:24;96573.19;;;19.49;56.19
45731;BME280;31440;48.584;13.460;2023-06-14T07:07:28;96574.78;;;20.54;65.57
45731;BME280;31440;48.584;13.460;2023-06-14T07:10:33;96576.00;;;20.61;58.18
45731;BME280;31440;48.584;13.460;2023-06-14T07:13:38;96573.69;;;20.78;61.58
45731;BME280;31440;48.584;13.460;2023-06-14T07:19:49;96575.69;;;19.97;59.50
45731;BME280;31440;48.584;13.460;2023-06-14T07:22:54;96572.00;;;21.00;54.94
45731;BME280;31440;48.584;13.460;2023-06-14T07:25:59;96575.09;;;21.69;67.73
45731;BME280;31440;48.584;13.460;2023-06-14T07:32:10;96570.72;;;21.79;51.04
45731;BME280;31440;48.584;13.460;2023-06-14T07:35:15;96574.66;;;20.77;48.75
45731;BME280;31440;48.584;13.460;2023-06-14T07:38:20;96572.34;;;21.59;50.71
45731;BME280;31440;48.584;13.460;2023-06-14T07:41:25;96583.44;;;20.67;52.34
45731;BME280;31440;48.584;13.460;2023-06-14T07:44:30;96576.63;;;21.07;49.60
45731;BME280;31440;48.584;13.460;2023-06-14T07:50:43;96577.78;;;22.20;46.27
45731;BME280;31440;48.584;13.460;2023-06-14T07:53:48;96579.50;;;22.31;54.76
45731;BME280;31440;48.584;13.460;2023-06-14T07:56:52;96577.75;;;22.10;45.30
45731;BME280;31440;48.584;13.460;2023-06-14T08:03:03;96583.31;;;22.68;51.48
45731;BME280;31440;48.584;13.460;2023-06-14T08:06:08;96575.50;;;23.16;47.53
45731;BME280;31440;48.584;13.460;2023-06-14T08:09:13;96583.59;;;21.93;47.94
45731;BME280;31440;48.584;13.460;2023-06-14T08:12:17;96579.72;;;23.29;44.50
45731;BME280;31440;48.584;13.460;2023-06-14T08:15:21;96577.81;;;22.81;46.35
45731;BME280;31440;48.584;13.460;2023-06-14T08:18:26;96582.66;;;22.45;46.71
45731;BME280;31440;48.584;13.460;2023-06-14T08:21:31;96586.78;;;22.69;45.50
45731;BME280;31440;48.584;13.460;2023-06-14T08:24:38;96579.31;;;23.52;47.11
45731;BME280;31440;48.584;13.460;2023-06-14T08:27:43;96585.41;;;24.20;54.64
45731;BME280;31440;48.584;13.460;2023-06-14T08:30:48;96580.47;;;25.00;46.02
45731;BME280;31440;48.584;13.460;2023-06-14T08:33:53;96583.72;;;25.56;47.99
45731;BME280;31440;48.584;13.460;2023-06-14T08:36:57;96582.00;;;24.38;40.62
45731;BME280;31440;48.584;13.460;2023-06-14T08:40:02;96575.69;;;25.66;46.81
45731;BME280;31440;48.584;13.460;2023-06-14T08:43:10;96581.13;;;23.62;42.06
45731;BME280;31440;48.584;13.460;2023-06-14T08:46:15;96575.16;;;25.17;42.20
45731;BME280;31440;48.584;13.460;2023-06-14T08:49:23;96582.41;;;24.43;39.87
45731;BME280;31440;48.584;13.460;2023-06-14T08:52:29;96581.19;;;25.90;41.21
45731;BME280;31440;48.584;13.460;2023-06-14T08:55:37;96581.06;;;24.93;41.23
45731;BME280;31440;48.584;13.460;2023-06-14T08:58:47;96581.06;;;25.74;39.03
45731;BME280;31440;48.584;13.460;2023-06-14T09:01:52;96583.34;;;26.90;47.06
45731;BME280;31440;48.584;13.460;2023-06-14T09:05:16;96586.72;;;26.41;37.52
45731;BME280;31440;48.584;13.460;2023-06-14T09:08:22;96583.13;;;25.62;35.14
45731;BME280;31440;48.584;13.460;2023-06-14T09:11:27;96581.19;;;24.65;36.82
45731;BME280;31440;48.584;13.460;2023-06-14T09:14:33;96581.56;;;25.24;38.18
45731;BME280;31440;48.584;13.460;2023-06-14T09:17:39;96586.59;;;26.50;44.86
45731;BME280;31440;48.584;13.460;2023-06-14T09:20:44;96584.91;;;26.15;37.73
45731;BME280;31440;48.584;13.460;2023-06-14T09:23:48;96582.53;;;26.12;38.78
45731;BME280;31440;48.584;13.460;2023-06-14T09:29:59;96582.13;;;26.85;42.03
45731;BME280;31440;48.584;13.460;2023-06-14T09:33:03;96587.50;;;24.54;39.52
45731;BME280;31440;48.584;13.460;2023-06-14T09:36:12;96587.16;;;27.30;42.56
45731;BME280;31440;48.584;13.460;2023-06-14T09:39:17;96581.31;;;27.34;35.70
45731;BME280;31440;48.584;13.460;2023-06-14T09:42:24;96577.06;;;26.14;33.15
45731;BME280;31440;48.584;13.460;2023-06-14T09:45:32;96574.72;;;27.13;35.02
45731;BME280;31440;48.584;13.460;2023-06-14T09:48:37;96584.03;;;28.08;41.70
45731;BME280;31440;48.584;13.460;2023-06-14T09:51:45;96581.06;;;27.94;32.98
45731;BME280;31440;48.584;13.460;2023-06-14T09:54:49;96590.50;;;27.56;38.98
45731;BME280;31440;48.584;13.460;2023-06-14T09:57:54;96583.81;;;25.65;35.49
45731;BME280;31440;48.584;13.460;2023-06-14T10:01:00;96586.31;;;25.84;36.57
45731;BME280;31440;48.584;13.460;2023-06-14T10:04:06;96583.19;;;25.53;35.91
45731;BME280;31440;48.584;13.460;2023-06-14T10:07:15;96583.97;;;25.63;39.78
45731;BME280;31440;48.584;13.460;2023-06-14T10:10:22;96582.59;;;25.41;35.75
45731;BME280;31440;48.584;13.460;2023-06-14T10:13:26;96584.66;;;24.75;35.85
45731;BME280;31440;48.584;13.460;2023-06-14T10:19:50;96584.28;;;25.60;39.15
45731;BME280;31440;48.584;13.460;2023-06-14T10:23:01;96589.19;;;24.45;38.48
45731;BME280;31440;48.584;13.460;2023-06-14T10:26:07;96585.53;;;24.09;35.79
45731;BME280;31440;48.584;13.460;2023-06-14T10:29:12;96583.91;;;23.99;36.06
45731;BME280;31440;48.584;13.460;2023-06-14T10:32:17;96581.03;;;24.29;38.67
45731;BME280;31440;48.584;13.460;2023-06-14T10:35:21;96590.25;;;23.09;39.82
45731;BME280;31440;48.584;13.460;2023-06-14T10:38:29;96586.50;;;22.62;39.53
45731;BME280;31440;48.584;13.460;2023-06-14T10:41:36;96580.69;;;23.28;41.87
45731;BME280;31440;48.584;13.460;2023-06-14T10:44:42;96581.00;;;22.84;42.70
45731;BME280;31440;48.584;13.460;2023-06-14T10:47:48;96575.78;;;24.56;41.06
45731;BME280;31440;48.584;13.460;2023-06-14T10:50:59;96571.41;;;24.28;40.39
45731;BME280;31440;48.584;13.460;2023-06-14T10:54:05;96575.16;;;24.72;38.68
45731;BME280;31440;48.584;13.460;2023-06-14T10:57:15;96572.06;;;25.22;37.44
45731;BME280;31440;48.584;13.460;2023-06-14T11:00:20;96574.72;;;24.40;39.93
45731;BME280;31440;48.584;13.460;2023-06-14T11:03:43;96566.09;;;25.73;38.30
45731;BME280;31440;48.584;13.460;2023-06-14T11:10:15;96558.75;;;26.11;36.57
45731;BME280;31440;48.584;13.460;2023-06-14T11:13:24;96557.56;;;25.44;33.89
45731;BME280;31440;48.584;13.460;2023-06-14T11:16:29;96557.69;;;25.42;36.72
45731;BME280;31440;48.584;13.460;2023-06-14T11:19:36;96558.25;;;25.89;36.75
45731;BME280;31440;48.584;13.460;2023-06-14T11:22:41;96572.00;;;24.59;37.41
45731;BME280;31440;48.584;13.460;2023-06-14T11:25:49;96564.50;;;24.45;38.81
45731;BME280;31440;48.584;13.460;2023-06-14T11:28:55;96576.94;;;23.98;38.75
45731;BME280;31440;48.584;13.460;2023-06-14T11:32:00;96560.19;;;23.97;37.98
45731;BME280;31440;48.584;13.460;2023-06-14T11:35:05;96569.34;;;22.97;38.61
45731;BME280;31440;48.584;13.460;2023-06-14T11:38:10;96561.03;;;23.59;38.56
45731;BME280;31440;48.584;13.460;2023-06-14T11:41:14;96564.66;;;23.68;38.35
45731;BME280;31440;48.584;13.460;2023-06-14T11:44:19;96560.66;;;23.54;37.97
45731;BME280;31440;48.584;13.460;2023-06-14T11:47:23;96565.00;;;22.96;39.62
45731;BME280;31440;48.584;13.460;2023-06-14T11:50:29;96563.84;;;22.48;40.54
45731;BME280;31440;48.584;13.460;2023-06-14T11:53:34;96558.03;;;22.95;39.71
45731;BME280;31440;48.584;13.460;2023-06-14T11:56:38;96562.34;;;22.86;39.57
45731;BME280;31440;48.584;13.460;2023-06-14T11:59:43;96558.56;;;22.48;41.05
45731;BME280;31440;48.584;13.460;2023-06-14T12:02:52;96562.16;;;22.38;40.93
45731;BME280;31440;48.584;13.460;2023-06-14T12:09:08;96560.31;;;22.29;42.10
45731;BME280;31440;48.584;13.460;2023-06-14T12:12:18;96554.16;;;22.99;39.52
45731;BME280;31440;48.584;13.460;2023-06-14T12:15:23;96555.28;;;23.06;39.15
45731;BME280;31440;48.584;13.460;2023-06-14T12:18:34;96548.56;;;23.02;40.78
45731;BME280;31440;48.584;13.460;2023-06-14T12:21:39;96548.28;;;23.91;39.10
45731;BME280;31440;48.584;13.460;2023-06-14T12:27:55;96555.78;;;24.25;38.41
45731;BME280;31440;48.584;13.460;2023-06-14T12:31:00;96560.38;;;24.70;38.38
45731;BME280;31440;48.584;13.460;2023-06-14T12:34:05;96556.19;;;26.53;37.09
45731;BME280;31440;48.584;13.460;2023-06-14T12:37:09;96553.38;;;28.20;34.03
45731;BME280;31440;48.584;13.460;2023-06-14T12:40:14;96549.31;;;29.26;33.10
45731;BME280;31440;48.584;13.460;2023-06-14T12:46:25;96541.00;;;29.21;30.64
45731;BME280;31440;48.584;13.460;2023-06-14T12:49:30;96541.00;;;30.27;31.07
45731;BME280;31440;48.584;13.460;2023-06-14T12:52:34;96537.44;;;31.30;29.45
45731;BME280;31440;48.584;13.460;2023-06-14T12:55:42;96534.06;;;31.85;29.30
45731;BME280;31440;48.584;13.460;2023-06-14T12:58:46;96544.31;;;30.59;29.29
45731;BME280;31440;48.584;13.460;2023-06-14T13:01:51;96532.06;;;30.50;26.68
45731;BME280;31440;48.584;13.460;2023-06-14T13:04:57;96532.94;;;31.73;24.06
45731;BME280;31440;48.584;13.460;2023-06-14T13:08:06;96527.50;;;30.35;26.09
45731;BME280;31440;48.584;13.460;2023-06-14T13:11:12;96525.84;;;30.93;26.64
45731;BME280;31440;48.584;13.460;2023-06-14T13:14:16;96531.22;;;31.29;26.22
45731;BME280;31440;48.584;13.460;2023-06-14T13:17:30;96519.41;;;32.09;27.21
45731;BME280;31440;48.584;13.460;2023-06-14T13:20:37;96527.84;;;31.63;26.51
45731;BME280;31440;48.584;13.460;2023-06-14T13:23:41;96516.91;;;32.07;26.22
45731;BME280;31440;48.584;13.460;2023-06-14T13:26:46;96512.22;;;32.78;25.35
45731;BME280;31440;48.584;13.460;2023-06-14T13:29:50;96522.88;;;33.13;27.50
45731;BME280;31440;48.584;13.460;2023-06-14T13:32:55;96518.78;;;32.76;26.20
45731;BME280;31440;48.584;13.460;2023-06-14T13:36:00;96524.25;;;32.55;24.98
45731;BME280;31440;48.584;13.460;2023-06-14T13:42:11;96517.53;;;31.60;25.93
45731;BME280;31440;48.584;13.460;2023-06-14T13:45:15;96511.53;;;31.37;25.03
45731;BME280;31440;48.584;13.460;2023-06-14T13:48:20;96509.78;;;31.29;27.33
45731;BME280;31440;48.584;13.460;2023-06-14T13:51:24;96514.69;;;31.26;27.54
45731;BME280;31440;48.584;13.460;2023-06-14T13:54:30;96512.91;;;32.25;25.30
45731;BME280;31440;48.584;13.460;2023-06-14T14:00:41;96507.03;;;31.87;26.52
45731;BME280;31440;48.584;13.460;2023-06-14T14:03:46;96505.69;;;32.60;24.84
45731;BME280;31440;48.584;13.460;2023-06-14T14:06:50;96504.72;;;31.62;25.52
45731;BME280;31440;48.584;13.460;2023-06-14T14:09:55;96515.97;;;29.83;26.68
45731;BME280;31440;48.584;13.460;2023-06-14T14:13:01;96509.72;;;31.08;25.57
45731;BME280;31440;48.584;13.460;2023-06-14T14:16:06;96508.06;;;31.86;26.16
45731;BME280;31440;48.584;13.460;2023-06-14T14:19:10;96512.03;;;30.16;26.21
45731;BME280;31440;48.584;13.460;2023-06-14T14:22:15;96511.94;;;30.83;23.97
45731;BME280;31440;48.584;13.460;2023-06-14T14:25:20;96511.16;;;32.10;23.84
45731;BME280;31440;48.584;13.460;2023-06-14T14:28:24;96508.22;;;33.22;25.60
45731;BME280;31440;48.584;13.460;2023-06-14T14:31:29;96504.53;;;30.12;25.44
45731;BME280;31440;48.584;13.460;2023-06-14T14:34:34;96506.97;;;29.98;26.43
45731;BME280;31440;48.584;13.460;2023-06-14T14:37:38;96514.88;;;29.00;26.58
45731;BME280;31440;48.584;13.460;2023-06-14T14:40:43;96516.88;;;27.47;27.26
45731;BME280;31440;48.584;13.460;2023-06-14T14:43:48;96510.06;;;27.45;29.27
45731;BME280;31440;48.584;13.460;2023-06-14T14:46:52;96522.06;;;27.97;28.58
45731;BME280;31440;48.584;13.460;2023-06-14T14:49:58;96522.06;;;27.65;29.98
45731;BME280;31440;48.584;13.460;2023-06-14T14:53:03;96526.69;;;27.55;30.25
45731;BME280;31440;48.584;13.460;2023-06-14T14:56:07;96534.59;;;27.06;29.68
45731;BME280;31440;48.584;13.460;2023-06-14T14:59:12;96524.53;;;27.66;32.86
45731;BME280;31440;48.584;13.460;2023-06-14T15:02:16;96526.88;;;27.86;28.22
45731;BME280;31440;48.584;13.460;2023-06-14T15:05:21;96519.13;;;29.86;29.68
45731;BME280;31440;48.584;13.460;2023-06-14T15:08:25;96531.84;;;30.95;28.41
45731;BME280;31440;48.584;13.460;2023-06-14T15:11:30;96526.22;;;31.41;31.25
45731;BME280;31440;48.584;13.460;2023-06-14T15:14:34;96521.53;;;30.78;31.14
45731;BME280;31440;48.584;13.460;2023-06-14T15:17:39;96523.19;;;30.64;27.66
45731;BME280;31440;48.584;13.460;2023-06-14T15:20:43;96515.91;;;31.23;27.04
45731;BME280;31440;48.584;13.460;2023-06-14T15:23:48;96518.97;;;30.02;28.77
45731;BME280;31440;48.584;13.460;2023-06-14T15:26:52;96522.22;;;32.01;27.49
45731;BME280;31440;48.584;13.460;2023-06-14T15:29:57;96521.28;;;32.15;24.97
45731;BME280;31440;48.584;13.460;2023-06-14T15:33:01;96516.13;;;31.86;24.74
45731;BME280;31440;48.584;13.460;2023-06-14T15:36:06;96516.72;;;32.09;24.86
45731;BME280;31440;48.584;13.460;2023-06-14T15:39:13;96517.28;;;32.26;26.33
45731;BME280;31440;48.584;13.460;2023-06-14T15:42:18;96519.69;;;32.49;24.95
45731;BME280;31440;48.584;13.460;2023-06-14T15:45:22;96516.25;;;33.09;26.02
45731;BME280;31440;48.584;13.460;2023-06-14T15:48:27;96514.78;;;30.37;27.33
45731;BME280;31440;48.584;13.460;2023-06-14T15:51:31;96512.84;;;28.72;27.91
45731;BME280;31440;48.584;13.460;2023-06-14T15:54:36;96515.06;;;27.64;30.25
45731;BME280;31440;48.584;13.460;2023-06-14T15:57:40;96513.19;;;28.05;29.78
45731;BME280;31440;48.584;13.460;2023-06-14T16:00:45;96530.53;;;27.28;30.27
45731;BME280;31440;48.584;13.460;2023-06-14T16:03:50;96510.06;;;27.45;30.21
45731;BME280;31440;48.584;13.460;2023-06-14T16:06:54;96519.03;;;26.43;31.05
45731;BME280;31440;48.584;13.460;2023-06-14T16:10:00;96527.47;;;26.64;32.36
45731;BME280;31440;48.584;13.460;2023-06-14T16:13:05;96533.56;;;26.91;31.35
45731;BME280;31440;48.584;13.460;2023-06-14T16:16:09;96532.84;;;27.31;32.03
45731;BME280;31440;48.584;13.460;2023-06-14T16:19:14;96528.09;;;26.92;32.46
45731;BME280;31440;48.584;13.460;2023-06-14T16:22:19;96523.56;;;26.77;31.30
45731;BME280;31440;48.584;13.460;2023-06-14T16:25:23;96529.03;;;26.83;29.65
45731;BME280;31440;48.584;13.460;2023-06-14T16:28:30;96537.19;;;26.48;29.56
45731;BME280;31440;48.584;13.460;2023-06-14T16:31:35;96541.88;;;26.54;31.76
45731;BME280;31440;48.584;13.460;2023-06-14T16:34:39;96545.41;;;27.13;31.72
45731;BME280;31440;48.584;13.460;2023-06-14T16:37:43;96545.38;;;25.59;30.57
45731;BME280;31440;48.584;13.460;2023-06-14T16:40:49;96545.81;;;25.72;32.28
45731;BME280;31440;48.584;13.460;2023-06-14T16:43:54;96545.94;;;25.00;33.49
45731;BME280;31440;48.584;13.460;2023-06-14T16:46:58;96551.06;;;25.11;33.26
45731;BME280;31440;48.584;13.460;2023-06-14T16:50:05;96561.88;;;24.35;34.45
45731;BME280;31440;48.584;13.460;2023-06-14T16:53:09;96562.22;;;24.22;34.14
45731;BME280;31440;48.584;13.460;2023-06-14T16:56:14;96567.47;;;24.42;34.14
45731;BME280;31440;48.584;13.460;2023-06-14T16:59:18;96565.44;;;24.63;33.71
45731;BME280;31440;48.584;13.460;2023-06-14T17:05:29;96583.06;;;23.60;35.96